Time;durP1;ratioP1;P1;durP2;ratioP2;P2;SDS_P1;SDS_P2;PMS_P1;PMS_P2;Temp;Humidity;BMP_temperature;BMP_pressure;BME280_temperature;BME280_humidity;BME280_pressure;Samples;Min_cycle;Max_cycle;Signal;HPM_P1;HPM_P2
2022/10/10 00:00:36;;;;;;;4.22;3.75;;;11.40;99.90;;;;;;5110152;28;20388;-73
2022/10/10 00:03:02;;;;;;;5.10;3.50;;;11.50;99.90;;;;;;5109583;28;20429;-72
2022/10/10 00:05:27;;;;;;;3.28;3.08;;;11.50;99.90;;;;;;5110192;28;20396;-73
2022/10/10 00:07:53;;;;;;;3.83;3.33;;;11.60;99.90;;;;;;5110125;28;20380;-72
2022/10/10 00:10:18;;;;;;;4.00;3.70;;;11.60;99.90;;;;;;5109950;28;20379;-72
2022/10/10 00:12:44;;;;;;;3.78;3.25;;;11.50;99.90;;;;;;5109962;28;20380;-72
2022/10/10 00:15:11;;;;;;;6.85;4.00;;;11.50;99.90;;;;;;5110132;28;20400;-73
2022/10/10 00:17:37;;;;;;;3.85;3.55;;;11.60;99.90;;;;;;5091765;28;20388;-73
2022/10/10 00:20:03;;;;;;;3.90;3.60;;;11.60;99.90;;;;;;5109679;28;20392;-72
2022/10/10 00:22:29;;;;;;;4.30;3.80;;;11.60;99.90;;;;;;5100291;28;20414;-72
2022/10/10 00:24:54;;;;;;;5.20;3.60;;;11.40;99.90;;;;;;5100888;28;20427;-73
2022/10/10 00:27:20;;;;;;;6.57;3.47;;;11.50;99.90;;;;;;5109831;28;20517;-73
2022/10/10 00:29:45;;;;;;;4.20;3.80;;;11.40;99.90;;;;;;5109893;28;20380;-72
2022/10/10 00:32:11;;;;;;;4.03;3.60;;;11.50;99.90;;;;;;5109945;28;20376;-72
2022/10/10 00:34:36;;;;;;;5.33;4.40;;;11.40;99.90;;;;;;5109769;28;20727;-72
2022/10/10 00:37:02;;;;;;;5.70;3.67;;;11.30;99.90;;;;;;5109870;28;20425;-73
2022/10/10 00:39:27;;;;;;;4.20;3.80;;;11.30;99.90;;;;;;5109391;28;20457;-73
2022/10/10 00:41:53;;;;;;;5.17;3.80;;;11.40;99.90;;;;;;5109865;28;20376;-73
2022/10/10 00:44:18;;;;;;;4.77;3.70;;;11.40;99.90;;;;;;5109503;28;20437;-73
2022/10/10 00:46:44;;;;;;;3.80;3.40;;;11.50;99.90;;;;;;5109820;28;20394;-72
2022/10/10 00:49:19;;;;;;;4.90;3.85;;;11.50;99.90;;;;;;5109740;28;20380;-73
2022/10/10 00:51:47;;;;;;;5.20;3.70;;;11.50;99.90;;;;;;5113109;28;20521;-73
2022/10/10 00:54:15;;;;;;;5.03;3.70;;;11.40;99.90;;;;;;5113003;28;20395;-72
2022/10/10 00:56:47;;;;;;;8.70;3.70;;;11.30;99.90;;;;;;5113577;28;20463;-73
2022/10/10 00:59:13;;;;;;;4.20;3.80;;;11.30;99.90;;;;;;5113553;28;20384;-72
2022/10/10 01:01:40;;;;;;;4.20;3.70;;;11.40;99.90;;;;;;5113403;28;20396;-72
2022/10/10 01:04:25;;;;;;;5.07;3.88;;;11.30;99.90;;;;;;5113258;28;20399;-73
2022/10/10 01:06:51;;;;;;;4.80;4.40;;;11.30;99.90;;;;;;5113001;28;20388;-72
2022/10/10 01:09:16;;;;;;;3.80;3.50;;;11.30;99.90;;;;;;5113165;28;20384;-72
2022/10/10 01:11:51;;;;;;;4.70;3.70;;;11.30;99.90;;;;;;5113242;28;20459;-72
2022/10/10 01:14:30;;;;;;;4.25;3.63;;;11.30;99.90;;;;;;5113024;28;20380;-72
2022/10/10 01:17:13;;;;;;;4.60;4.00;;;11.30;99.90;;;;;;5113291;28;20482;-72
2022/10/10 01:20:15;;;;;;;6.20;3.78;;;11.30;99.90;;;;;;5113188;28;20468;-72
2022/10/10 01:22:54;;;;;;;4.30;3.45;;;11.20;99.90;;;;;;5103053;28;20432;-72
2022/10/10 01:25:31;;;;;;;6.22;4.18;;;11.30;99.90;;;;;;5112761;28;20384;-72
2022/10/10 01:28:25;;;;;;;4.10;3.70;;;11.40;99.90;;;;;;5112996;28;20425;-72
2022/10/10 01:30:51;;;;;;;3.88;3.40;;;11.30;99.90;;;;;;5112999;28;20937;-72
2022/10/10 01:33:27;;;;;;;5.90;3.97;;;11.30;99.90;;;;;;5112699;28;20387;-72
2022/10/10 01:36:02;;;;;;;3.90;3.60;;;11.30;99.90;;;;;;5112788;28;20438;-73
2022/10/10 01:38:30;;;;;;;5.70;4.10;;;11.40;99.90;;;;;;5112947;28;20842;-73
2022/10/10 01:41:09;;;;;;;4.18;3.50;;;11.30;99.90;;;;;;5112362;28;20392;-72
2022/10/10 01:43:36;;;;;;;4.00;3.58;;;11.40;99.90;;;;;;5112493;28;20400;-72
2022/10/10 01:46:10;;;;;;;4.75;3.70;;;11.30;99.90;;;;;;5112658;28;20388;-72
2022/10/10 01:48:36;;;;;;;4.63;3.47;;;11.50;99.90;;;;;;5112649;28;20380;-72
2022/10/10 01:51:20;;;;;;;4.10;3.50;;;11.40;99.90;;;;;;5112493;28;20376;-72
2022/10/10 01:53:52;;;;;;;3.90;3.60;;;11.40;99.90;;;;;;5112408;28;20460;-72
2022/10/10 01:56:26;;;;;;;5.15;3.40;;;11.40;99.90;;;;;;5112131;28;20392;-72
2022/10/10 01:59:09;;;;;;;4.10;3.70;;;11.50;99.90;;;;;;5112350;28;20804;-72
2022/10/10 02:01:45;;;;;;;4.35;3.38;;;11.50;99.90;;;;;;5111771;28;20377;-72
2022/10/10 02:04:34;;;;;;;5.20;3.70;;;11.70;99.90;;;;;;5111994;28;20711;-72
2022/10/10 02:07:09;;;;;;;4.28;3.70;;;11.60;99.90;;;;;;5112268;28;20433;-72
2022/10/10 02:09:38;;;;;;;4.20;3.58;;;11.60;99.90;;;;;;5112213;28;20368;-72
2022/10/10 02:12:05;;;;;;;3.97;3.42;;;11.60;99.90;;;;;;5093602;28;20384;-72
2022/10/10 02:14:36;;;;;;;3.97;3.47;;;11.70;99.90;;;;;;5111911;28;20372;-72
2022/10/10 02:17:06;;;;;;;3.50;3.13;;;11.60;99.90;;;;;;5112141;28;20385;-72
2022/10/10 02:19:32;;;;;;;5.00;3.30;;;11.60;99.90;;;;;;5111963;28;20869;-72
2022/10/10 02:21:59;;;;;;;3.27;2.97;;;11.70;99.90;;;;;;5106773;28;20542;-72
2022/10/10 02:24:24;;;;;;;5.10;3.60;;;11.70;99.90;;;;;;5091318;28;20398;-72
2022/10/10 02:27:04;;;;;;;3.50;3.00;;;11.80;99.90;;;;;;5110113;28;20388;-72
2022/10/10 02:29:33;;;;;;;3.40;3.00;;;11.90;99.90;;;;;;5111844;28;20417;-72
2022/10/10 02:32:09;;;;;;;3.50;3.20;;;11.90;99.90;;;;;;5111667;28;20376;-73
2022/10/10 02:34:39;;;;;;;4.93;3.40;;;11.80;99.90;;;;;;5111627;28;20387;-72
2022/10/10 02:37:11;;;;;;;4.38;3.22;;;11.80;99.90;;;;;;5112229;28;20388;-73
2022/10/10 02:39:41;;;;;;;3.80;3.40;;;11.70;99.90;;;;;;5111613;28;20423;-71
2022/10/10 02:42:08;;;;;;;3.78;3.25;;;11.80;99.90;;;;;;5093661;28;20789;-71
2022/10/10 02:44:35;;;;;;;4.00;2.83;;;11.80;99.90;;;;;;5111532;28;20400;-71
2022/10/10 02:47:01;;;;;;;4.77;3.50;;;11.70;99.90;;;;;;5111670;28;20413;-71
2022/10/10 02:49:29;;;;;;;4.00;3.50;;;11.80;99.90;;;;;;5111600;28;20464;-71
2022/10/10 02:51:55;;;;;;;6.57;3.80;;;11.80;99.90;;;;;;5111588;28;20480;-71
2022/10/10 02:54:20;;;;;;;4.43;3.10;;;11.90;99.90;;;;;;5110950;28;20475;-72
2022/10/10 02:56:46;;;;;;;5.30;3.30;;;12.00;99.90;;;;;;5111531;28;20446;-72
2022/10/10 02:59:11;;;;;;;3.50;3.20;;;12.00;99.90;;;;;;5110877;28;20934;-71
2022/10/10 03:01:37;;;;;;;3.70;3.40;;;12.00;99.90;;;;;;5111379;28;20388;-71
2022/10/10 03:04:02;;;;;;;3.80;3.20;;;11.90;99.90;;;;;;5111179;28;20857;-71
2022/10/10 03:06:28;;;;;;;4.03;3.33;;;12.00;99.90;;;;;;5111592;28;20372;-71
2022/10/10 03:08:53;;;;;;;3.67;3.35;;;11.90;99.90;;;;;;5111137;28;20731;-72
2022/10/10 03:11:19;;;;;;;3.90;3.40;;;11.90;99.90;;;;;;5111236;28;20762;-71
2022/10/10 03:13:45;;;;;;;8.90;3.40;;;12.00;99.90;;;;;;5110317;28;20901;-71
2022/10/10 03:16:10;;;;;;;3.73;3.17;;;12.00;99.90;;;;;;5111041;28;20411;-71
2022/10/10 03:18:36;;;;;;;3.50;3.20;;;12.00;99.90;;;;;;5110806;28;20376;-71
2022/10/10 03:21:02;;;;;;;3.75;3.45;;;11.90;99.90;;;;;;5092519;28;20412;-71
2022/10/10 03:23:28;;;;;;;4.40;3.40;;;11.90;99.90;;;;;;5092579;28;20409;-71
2022/10/10 03:25:53;;;;;;;4.00;3.60;;;11.90;99.90;;;;;;5072392;28;20382;-71
2022/10/10 03:28:20;;;;;;;4.55;3.90;;;11.80;99.90;;;;;;5096063;28;20488;-72
2022/10/10 03:30:46;;;;;;;4.23;3.20;;;11.80;99.90;;;;;;5110182;28;20761;-71
2022/10/10 03:33:11;;;;;;;5.85;3.40;;;11.80;99.90;;;;;;5111000;28;20825;-71
2022/10/10 03:35:37;;;;;;;5.60;3.53;;;11.90;99.90;;;;;;5111219;28;20412;-71
2022/10/10 03:38:04;;;;;;;4.17;3.50;;;11.80;99.90;;;;;;5111009;28;20474;-71
2022/10/10 03:40:30;;;;;;;3.70;3.40;;;11.90;99.90;;;;;;5111141;28;20396;-71
2022/10/10 03:42:56;;;;;;;4.43;3.22;;;11.90;99.90;;;;;;5110327;28;20503;-71
2022/10/10 03:45:21;;;;;;;4.27;3.20;;;11.90;99.90;;;;;;5111027;28;20468;-71
2022/10/10 03:47:47;;;;;;;5.00;3.70;;;12.00;99.90;;;;;;5110984;28;20418;-71
2022/10/10 03:50:12;;;;;;;4.03;3.40;;;12.00;99.90;;;;;;5111039;28;20364;-71
2022/10/10 03:52:38;;;;;;;5.22;3.60;;;12.10;99.90;;;;;;5110564;28;20890;-71
2022/10/10 03:55:04;;;;;;;4.22;3.40;;;12.10;99.90;;;;;;5110670;28;20823;-71
2022/10/10 03:57:30;;;;;;;4.60;3.50;;;12.10;99.90;;;;;;5110751;28;20376;-72
2022/10/10 03:59:55;;;;;;;5.70;3.83;;;12.00;99.90;;;;;;5110824;28;20418;-71
2022/10/10 04:02:21;;;;;;;4.57;3.20;;;12.10;99.90;;;;;;5110589;28;20412;-71
2022/10/10 04:04:46;;;;;;;4.33;3.10;;;12.10;99.90;;;;;;5110619;28;20439;-71
2022/10/10 04:07:12;;;;;;;5.23;3.50;;;12.10;99.90;;;;;;5110820;28;20372;-71
2022/10/10 04:09:38;;;;;;;3.60;3.30;;;12.20;99.90;;;;;;5110385;28;20442;-71
2022/10/10 04:12:04;;;;;;;4.18;3.40;;;12.10;99.90;;;;;;5110636;28;20372;-72
2022/10/10 04:14:29;;;;;;;5.87;3.40;;;12.30;99.90;;;;;;5110307;28;20385;-71
2022/10/10 04:16:55;;;;;;;4.18;3.60;;;12.30;99.90;;;;;;5110719;28;20437;-71
2022/10/10 04:19:20;;;;;;;3.30;3.00;;;12.40;99.90;;;;;;5110481;28;20396;-71
2022/10/10 04:21:46;;;;;;;4.20;3.53;;;12.40;99.90;;;;;;5106750;28;20404;-72
2022/10/10 04:24:11;;;;;;;3.90;3.60;;;12.40;99.90;;;;;;5102611;28;20408;-71
2022/10/10 04:26:37;;;;;;;3.50;3.20;;;12.30;99.90;;;;;;5113631;28;20463;-71
2022/10/10 04:29:02;;;;;;;5.97;3.80;;;12.20;99.90;;;;;;5114664;28;20384;-72
2022/10/10 04:31:28;;;;;;;4.80;3.17;;;12.30;99.90;;;;;;5114741;28;20395;-71
2022/10/10 04:33:54;;;;;;;3.77;3.37;;;12.40;99.90;;;;;;5114020;28;20951;-71
2022/10/10 04:36:19;;;;;;;5.40;3.97;;;12.30;99.90;;;;;;5114629;28;20732;-71
2022/10/10 04:38:45;;;;;;;3.50;3.20;;;12.40;99.90;;;;;;5114575;28;20380;-71
2022/10/10 04:41:10;;;;;;;4.13;3.77;;;12.40;99.90;;;;;;5114023;28;20390;-71
2022/10/10 04:43:36;;;;;;;4.10;3.70;;;12.30;99.90;;;;;;5114134;28;20744;-71
2022/10/10 04:46:02;;;;;;;4.23;3.13;;;12.40;99.90;;;;;;5109611;28;20408;-71
2022/10/10 04:48:27;;;;;;;4.40;3.50;;;12.40;99.90;;;;;;5110096;27;20394;-71
2022/10/10 04:50:56;;;;;;;5.73;4.00;;;12.40;99.90;;;;;;5114668;27;20380;-72
2022/10/10 04:53:22;;;;;;;4.15;3.38;;;12.40;99.90;;;;;;5121955;27;20416;-71
2022/10/10 04:55:48;;;;;;;6.60;3.88;;;12.40;99.90;;;;;;5114042;28;20479;-71
2022/10/10 04:58:13;;;;;;;7.10;4.28;;;12.50;99.90;;;;;;5113828;28;20476;-72
2022/10/10 05:00:39;;;;;;;6.18;4.40;;;12.50;99.90;;;;;;5112447;28;20436;-72
2022/10/10 05:03:05;;;;;;;4.18;3.75;;;12.40;99.90;;;;;;5107557;28;20894;-71
2022/10/10 05:05:31;;;;;;;5.13;4.30;;;12.40;99.90;;;;;;5107984;28;20431;-71
2022/10/10 05:07:57;;;;;;;5.38;3.92;;;12.50;99.90;;;;;;5113084;28;20412;-72
2022/10/10 05:10:24;;;;;;;6.70;4.40;;;12.50;99.90;;;;;;5104643;28;20409;-72
2022/10/10 05:12:50;;;;;;;6.88;4.60;;;12.40;99.90;;;;;;5103545;28;20412;-72
2022/10/10 05:15:16;;;;;;;4.22;3.83;;;12.40;99.90;;;;;;5103768;28;20928;-71
2022/10/10 05:17:41;;;;;;;4.95;4.35;;;12.50;99.90;;;;;;5108927;28;20429;-72
2022/10/10 05:20:07;;;;;;;7.67;4.90;;;12.40;99.90;;;;;;5111255;28;20817;-73
2022/10/10 05:22:33;;;;;;;6.97;4.50;;;12.40;99.90;;;;;;5107517;28;20900;-73
2022/10/10 05:24:58;;;;;;;6.00;4.37;;;12.50;99.90;;;;;;5089659;28;20389;-73
2022/10/10 05:27:25;;;;;;;4.73;4.30;;;12.40;99.90;;;;;;5104234;28;20482;-73
2022/10/10 05:29:51;;;;;;;5.50;4.40;;;12.40;99.90;;;;;;5112475;28;20392;-73
2022/10/10 05:32:17;;;;;;;8.82;5.03;;;12.40;99.90;;;;;;5107160;28;20986;-73
2022/10/10 05:34:43;;;;;;;5.00;4.50;;;12.40;99.90;;;;;;5111739;28;20384;-73
2022/10/10 05:37:08;;;;;;;5.60;4.70;;;12.50;99.90;;;;;;5112006;28;20383;-73
2022/10/10 05:39:34;;;;;;;4.93;4.10;;;12.40;99.90;;;;;;5111750;28;20436;-73
2022/10/10 05:41:59;;;;;;;8.93;4.18;;;12.70;99.90;;;;;;5108036;28;20404;-73
2022/10/10 05:44:26;;;;;;;5.70;4.40;;;12.60;99.90;;;;;;5108515;28;20408;-73
2022/10/10 05:46:51;;;;;;;4.57;4.15;;;12.60;99.90;;;;;;5110023;28;20412;-73
2022/10/10 05:49:17;;;;;;;5.20;4.45;;;12.60;99.90;;;;;;5111524;28;20404;-73
2022/10/10 05:51:42;;;;;;;7.40;4.33;;;12.70;99.90;;;;;;5110606;28;20396;-73
2022/10/10 05:54:08;;;;;;;7.23;4.60;;;12.70;99.90;;;;;;5110868;28;20414;-73
2022/10/10 05:56:34;;;;;;;5.60;4.17;;;12.70;99.90;;;;;;5092065;28;20928;-73
2022/10/10 05:59:00;;;;;;;4.13;3.73;;;12.70;99.90;;;;;;5111910;28;20381;-73
2022/10/10 06:01:26;;;;;;;5.38;4.40;;;12.70;99.90;;;;;;5111841;28;20459;-73
2022/10/10 06:03:54;;;;;;;6.63;4.20;;;12.80;99.90;;;;;;5109109;28;20433;-72
2022/10/10 06:06:21;;;;;;;5.15;4.28;;;12.80;99.90;;;;;;5100440;28;20384;-72
2022/10/10 06:08:47;;;;;;;6.30;4.10;;;12.80;99.90;;;;;;5104092;28;20434;-73
2022/10/10 06:11:14;;;;;;;5.03;4.53;;;12.80;99.90;;;;;;5107197;28;20435;-71
2022/10/10 06:13:40;;;;;;;5.90;4.47;;;12.80;99.90;;;;;;5084052;28;20408;-72
2022/10/10 06:16:06;;;;;;;4.80;3.95;;;12.90;99.90;;;;;;5106650;28;20408;-72
2022/10/10 06:18:32;;;;;;;5.63;4.68;;;12.90;99.90;;;;;;5104146;28;20439;-72
2022/10/10 06:21:01;;;;;;;5.30;3.70;;;13.00;99.90;;;;;;5101598;28;20411;-72
2022/10/10 06:23:27;;;;;;;5.97;4.10;;;13.00;99.90;;;;;;5102990;28;20446;-72
2022/10/10 06:25:53;;;;;;;4.88;4.38;;;13.00;99.90;;;;;;5106033;28;20386;-72
2022/10/10 06:28:19;;;;;;;5.60;4.45;;;13.00;99.90;;;;;;5106753;28;20395;-72
2022/10/10 06:30:47;;;;;;;7.07;4.63;;;13.00;99.90;;;;;;5103561;28;20771;-72
2022/10/10 06:33:14;;;;;;;5.75;4.25;;;13.10;99.90;;;;;;5106973;28;20404;-73
2022/10/10 06:35:43;;;;;;;4.80;4.22;;;13.10;99.90;;;;;;5087553;28;20402;-72
2022/10/10 06:38:09;;;;;;;4.57;4.18;;;13.10;99.90;;;;;;5103419;28;20476;-73
2022/10/10 06:40:35;;;;;;;5.50;4.40;;;13.00;99.90;;;;;;5110853;28;20371;-72
2022/10/10 06:43:02;;;;;;;4.70;4.20;;;13.00;99.90;;;;;;5091725;28;20408;-72
2022/10/10 06:45:27;;;;;;;4.97;4.47;;;12.90;99.90;;;;;;5110580;28;20732;-73
2022/10/10 06:47:53;;;;;;;5.20;4.47;;;13.00;99.90;;;;;;5110196;28;20384;-72
2022/10/10 06:50:20;;;;;;;6.53;4.90;;;13.10;99.90;;;;;;5080366;28;20437;-73
2022/10/10 06:52:46;;;;;;;5.65;4.70;;;13.10;99.90;;;;;;5090523;28;20551;-72
2022/10/10 06:55:11;;;;;;;7.15;4.90;;;13.00;99.90;;;;;;5090600;28;20805;-73
2022/10/10 06:57:37;;;;;;;6.80;4.90;;;13.10;99.90;;;;;;5042127;28;1728560;-73
2022/10/10 07:00:04;;;;;;;6.23;4.53;;;13.20;99.90;;;;;;5111890;28;20880;-73
2022/10/10 07:02:30;;;;;;;8.07;4.72;;;13.20;99.90;;;;;;5126612;27;20382;-74
2022/10/10 07:04:55;;;;;;;6.80;4.67;;;13.20;99.90;;;;;;5100005;28;20799;-74
2022/10/10 07:07:21;;;;;;;5.13;4.60;;;13.20;99.90;;;;;;5120129;27;20798;-73
2022/10/10 07:09:47;;;;;;;6.80;4.63;;;13.30;99.90;;;;;;5108489;28;20453;-73
2022/10/10 07:12:12;;;;;;;4.93;4.53;;;13.40;99.90;;;;;;5111549;28;20380;-73
2022/10/10 07:14:38;;;;;;;4.90;4.40;;;13.40;99.90;;;;;;5103261;28;20428;-73
2022/10/10 07:17:03;;;;;;;4.73;4.20;;;13.40;99.90;;;;;;5111422;28;20376;-73
2022/10/10 07:19:29;;;;;;;5.65;4.30;;;13.40;99.90;;;;;;5113169;27;20438;-73
2022/10/10 07:21:54;;;;;;;6.30;4.60;;;13.40;99.90;;;;;;5113040;27;20455;-73
2022/10/10 07:24:20;;;;;;;5.37;4.50;;;13.50;99.90;;;;;;5080342;28;20417;-71
2022/10/10 07:26:45;;;;;;;5.50;4.40;;;13.50;99.90;;;;;;5105253;28;20395;-74
2022/10/10 07:29:11;;;;;;;5.50;5.00;;;13.50;99.90;;;;;;5092804;28;20967;-72
2022/10/10 07:31:36;;;;;;;6.80;4.60;;;13.60;99.90;;;;;;5111194;28;20381;-72
2022/10/10 07:34:05;;;;;;;5.40;4.73;;;13.70;99.90;;;;;;5110784;28;20426;-73
2022/10/10 07:36:33;;;;;;;5.75;4.50;;;13.70;99.90;;;;;;5111434;28;20380;-74
2022/10/10 07:38:58;;;;;;;5.03;4.53;;;13.70;99.90;;;;;;5111227;28;20410;-73
2022/10/10 07:41:24;;;;;;;6.03;4.93;;;13.70;99.90;;;;;;5110630;28;20392;-72
2022/10/10 07:43:54;;;;;;;5.20;4.70;;;13.70;99.90;;;;;;5110605;28;20491;-74
2022/10/10 07:46:20;;;;;;;6.07;5.10;;;13.70;99.90;;;;;;5110961;28;20768;-73
2022/10/10 07:48:48;;;;;;;5.95;4.95;;;13.80;99.90;;;;;;5092504;28;20471;-72
2022/10/10 07:51:14;;;;;;;5.43;4.57;;;13.90;99.90;;;;;;5092553;28;20391;-72
2022/10/10 07:53:43;;;;;;;5.30;4.15;;;14.10;99.90;;;;;;5110716;28;20380;-72
2022/10/10 07:56:09;;;;;;;5.13;4.73;;;14.20;99.90;;;;;;5091844;28;20427;-72
2022/10/10 07:58:37;;;;;;;5.07;4.57;;;14.20;99.90;;;;;;5110471;28;20519;-73
2022/10/10 08:01:05;;;;;;;5.18;4.30;;;14.30;99.90;;;;;;5109597;28;20406;-73
2022/10/10 08:03:31;;;;;;;7.57;4.30;;;14.40;99.90;;;;;;5110416;28;20499;-73
2022/10/10 08:05:56;;;;;;;5.60;4.80;;;14.40;99.90;;;;;;5110722;28;20471;-73
2022/10/10 08:08:22;;;;;;;5.90;4.70;;;14.40;99.90;;;;;;5092400;28;20373;-73
2022/10/10 08:10:47;;;;;;;5.13;4.00;;;14.50;99.90;;;;;;5110329;28;20389;-73
2022/10/10 08:13:13;;;;;;;5.20;4.20;;;14.60;99.90;;;;;;5110410;28;20897;-73
2022/10/10 08:15:39;;;;;;;4.70;4.30;;;14.60;99.90;;;;;;5092224;28;20912;-72
2022/10/10 08:18:05;;;;;;;4.80;4.20;;;14.70;99.90;;;;;;5110521;28;20460;-72
2022/10/10 08:20:40;;;;;;;6.50;4.47;;;14.70;99.90;;;;;;5110354;28;20483;-73
2022/10/10 08:23:05;;;;;;;8.30;4.30;;;14.80;99.90;;;;;;5095356;28;20447;-72
2022/10/10 08:25:32;;;;;;;5.22;4.35;;;14.90;99.90;;;;;;5072076;28;20378;-72
2022/10/10 08:28:00;;;;;;;6.25;4.10;;;15.00;99.90;;;;;;5090127;28;20375;-72
2022/10/10 08:30:25;;;;;;;4.13;3.72;;;15.00;99.90;;;;;;5089965;28;20389;-73
2022/10/10 08:32:51;;;;;;;5.50;4.27;;;15.10;99.90;;;;;;5089918;28;20378;-73
2022/10/10 08:35:16;;;;;;;5.10;3.60;;;15.20;99.90;;;;;;5090587;28;20872;-74
2022/10/10 08:37:42;;;;;;;5.83;3.60;;;15.30;99.90;;;;;;5107660;28;20441;-72
2022/10/10 08:40:14;;;;;;;3.70;3.40;;;15.60;99.90;;;;;;5110682;28;20420;-72
2022/10/10 08:42:48;;;;;;;5.05;3.50;;;15.60;99.90;;;;;;5090107;28;20852;-73
2022/10/10 08:45:20;;;;;;;4.30;3.65;;;15.70;99.90;;;;;;5090086;28;20416;-72
2022/10/10 08:47:54;;;;;;;3.78;3.47;;;15.90;99.90;;;;;;5071862;28;20392;-72
2022/10/10 08:50:29;;;;;;;5.00;3.70;;;15.90;99.90;;;;;;5090435;28;20381;-73
2022/10/10 08:53:41;;;;;;;4.00;3.00;;;16.00;99.90;;;;;;5089897;28;20385;-73
2022/10/10 08:56:15;;;;;;;3.50;3.20;;;16.20;99.90;;;;;;4992545;28;20474;-73
2022/10/10 08:58:45;;;;;;;2.70;2.50;;;16.40;99.90;;;;;;5086574;28;20906;-73
2022/10/10 09:01:22;;;;;;;3.40;2.60;;;16.60;99.90;;;;;;5110200;28;20770;-73
2022/10/10 09:03:59;;;;;;;2.00;1.80;;;17.00;99.90;;;;;;5109840;28;20478;-73
2022/10/10 09:07:02;;;;;;;6.20;1.83;;;17.30;99.90;;;;;;5110212;28;20473;-73
2022/10/10 09:10:01;;;;;;;3.53;1.50;;;17.80;99.90;;;;;;5110159;28;20375;-73
2022/10/10 09:12:55;;;;;;;1.50;1.30;;;18.00;99.90;;;;;;5112609;28;20380;-73
2022/10/10 09:15:32;;;;;;;2.40;1.70;;;18.10;99.90;;;;;;5095292;28;20384;-74
2022/10/10 09:18:22;;;;;;;2.83;1.60;;;18.10;99.90;;;;;;5113810;28;20471;-74
2022/10/10 09:21:13;;;;;;;1.98;1.80;;;18.20;99.90;;;;;;5095847;28;20396;-73
2022/10/10 09:24:02;;;;;;;3.45;1.80;;;18.40;99.90;;;;;;5105816;28;20769;-73
2022/10/10 09:26:38;;;;;;;2.45;1.40;;;18.70;99.90;;;;;;5112554;28;20432;-73
2022/10/10 09:29:21;;;;;;;1.27;1.17;;;18.70;99.90;;;;;;5095250;28;20971;-74
2022/10/10 09:32:17;;;;;;;1.90;1.40;;;18.80;99.90;;;;;;5114978;28;20395;-73
2022/10/10 09:34:47;;;;;;;2.25;1.60;;;18.80;99.90;;;;;;5115221;28;20388;-73
2022/10/10 09:37:20;;;;;;;2.60;1.50;;;18.80;99.90;;;;;;5115635;28;20399;-73
2022/10/10 09:39:50;;;;;;;1.60;1.40;;;18.90;99.90;;;;;;5114675;28;20437;-74
2022/10/10 09:42:19;;;;;;;2.83;1.60;;;19.00;99.90;;;;;;5113692;28;20435;-74
2022/10/10 09:44:45;;;;;;;3.15;1.50;;;19.00;99.90;;;;;;5095086;28;20400;-74
2022/10/10 09:47:12;;;;;;;3.22;1.42;;;18.90;99.90;;;;;;5113348;28;20391;-74
2022/10/10 09:49:38;;;;;;;1.50;1.40;;;18.90;99.90;;;;;;5113342;28;20384;-73
2022/10/10 09:52:30;;;;;;;3.30;1.80;;;19.00;99.90;;;;;;5113201;28;20383;-74
2022/10/10 09:55:19;;;;;;;2.80;1.60;;;19.10;99.90;;;;;;5099176;28;20424;-72
2022/10/10 09:57:46;;;;;;;2.63;1.90;;;19.30;99.90;;;;;;5101590;28;20800;-72
2022/10/10 10:00:18;;;;;;;5.40;1.70;;;19.20;99.90;;;;;;5113139;28;20484;-72
2022/10/10 10:02:48;;;;;;;5.97;1.90;;;19.40;99.90;;;;;;5112642;28;20376;-71
2022/10/10 10:05:25;;;;;;;1.98;1.65;;;19.30;99.90;;;;;;5113012;28;20388;-72
2022/10/10 10:07:51;;;;;;;2.50;1.50;;;19.30;99.90;;;;;;5112315;28;20396;-72
2022/10/10 10:10:25;;;;;;;2.88;1.90;;;19.30;99.90;;;;;;5112762;28;20369;-73
2022/10/10 10:12:52;;;;;;;2.20;1.77;;;19.50;99.90;;;;;;5112361;28;20444;-72
2022/10/10 10:15:30;;;;;;;2.97;1.60;;;19.50;99.90;;;;;;5112768;28;20870;-72
2022/10/10 10:18:15;;;;;;;3.47;1.80;;;19.40;99.90;;;;;;5094248;28;20429;-73
2022/10/10 10:21:01;;;;;;;1.80;1.70;;;19.50;99.90;;;;;;5112536;28;20372;-73
2022/10/10 10:23:42;;;;;;;1.88;1.40;;;19.60;99.90;;;;;;5108690;28;20501;-73
2022/10/10 10:26:16;;;;;;;4.60;2.50;;;19.60;99.90;;;;;;5112442;28;20444;-73
2022/10/10 10:28:42;;;;;;;2.93;1.83;;;19.80;99.90;;;;;;5112258;28;20401;-73
2022/10/10 10:31:42;;;;;;;2.50;1.90;;;19.80;99.90;;;;;;5112264;28;20380;-73
2022/10/10 10:34:17;;;;;;;3.50;1.83;;;19.80;99.90;;;;;;5108183;28;20746;-73
2022/10/10 10:37:44;;;;;;;4.75;2.30;;;20.00;99.90;;;;;;5112364;28;20380;-73
2022/10/10 10:40:31;;;;;;;4.70;1.60;;;20.00;99.90;;;;;;5008018;28;20475;-73
2022/10/10 10:43:14;;;;;;;4.40;2.03;;;20.10;99.90;;;;;;5093210;28;20827;-72
2022/10/10 10:45:49;;;;;;;1.80;1.60;;;20.20;99.90;;;;;;5112025;28;20471;-72
2022/10/10 10:48:33;;;;;;;2.42;1.90;;;20.40;99.90;;;;;;5111641;28;20423;-72
2022/10/10 10:51:14;;;;;;;2.50;1.60;;;20.60;99.90;;;;;;5111793;28;20939;-73
2022/10/10 10:53:54;;;;;;;3.88;1.90;;;20.70;99.90;;;;;;5111663;28;20383;-73
2022/10/10 10:56:45;;;;;;;3.40;1.65;;;20.80;99.90;;;;;;5093606;28;20432;-72
2022/10/10 10:59:26;;;;;;;4.10;1.80;;;21.00;99.90;;;;;;5111669;28;20435;-72
2022/10/10 11:02:00;;;;;;;3.70;1.80;;;21.30;99.90;;;;;;5093216;28;20385;-72
2022/10/10 11:04:40;;;;;;;4.18;1.80;;;21.40;99.90;;;;;;5092788;28;20400;-72
2022/10/10 11:07:24;;;;;;;2.58;1.40;;;21.60;99.90;;;;;;5093114;28;20472;-73
2022/10/10 11:10:24;;;;;;;2.50;1.70;;;22.30;99.90;;;;;;5111575;28;20373;-72
2022/10/10 11:12:56;;;;;;;3.70;1.60;;;23.30;99.60;;;;;;5111246;28;20377;-71
2022/10/10 11:15:24;;;;;;;3.83;1.60;;;24.00;96.10;;;;;;5111641;28;20467;-72
2022/10/10 11:18:15;;;;;;;3.90;1.90;;;24.50;95.80;;;;;;5111338;28;20464;-72
2022/10/10 11:20:51;;;;;;;2.38;1.55;;;24.70;93.20;;;;;;5111430;28;20400;-73
2022/10/10 11:23:43;;;;;;;4.73;1.60;;;25.30;90.50;;;;;;5103175;28;20423;-73
2022/10/10 11:26:35;;;;;;;2.22;1.40;;;25.20;91.10;;;;;;5106670;28;20423;-72
2022/10/10 11:29:17;;;;;;;3.90;1.70;;;25.50;87.20;;;;;;5109143;28;20402;-73
2022/10/10 11:31:58;;;;;;;9.70;2.00;;;25.50;86.10;;;;;;5109215;28;20437;-73
2022/10/10 11:34:30;;;;;;;3.65;1.80;;;25.50;90.00;;;;;;5078065;28;20442;-73
2022/10/10 11:37:01;;;;;;;2.88;1.70;;;25.20;85.70;;;;;;5104187;28;20833;-72
2022/10/10 11:39:42;;;;;;;3.10;1.90;;;25.90;83.70;;;;;;5110211;28;20952;-73
2022/10/10 11:42:17;;;;;;;2.28;1.45;;;25.80;85.30;;;;;;5110251;28;20747;-73
2022/10/10 11:44:46;;;;;;;3.20;1.60;;;25.10;86.50;;;;;;5110723;28;20399;-71
2022/10/10 11:47:24;;;;;;;2.20;1.50;;;24.90;84.70;;;;;;5111176;28;20479;-73
2022/10/10 11:50:08;;;;;;;4.13;1.80;;;25.10;85.50;;;;;;5110407;28;20399;-74
2022/10/10 11:53:28;;;;;;;5.90;1.90;;;25.00;88.60;;;;;;5091715;28;20445;-72
2022/10/10 11:56:24;;;;;;;4.85;1.83;;;25.40;90.40;;;;;;5047903;28;20397;-73
2022/10/10 11:58:59;;;;;;;4.13;1.80;;;26.00;85.90;;;;;;5110305;28;20415;-73
2022/10/10 12:01:29;;;;;;;3.90;1.60;;;26.10;82.90;;;;;;5110901;28;20474;-72
2022/10/10 12:03:58;;;;;;;4.70;1.60;;;26.20;80.20;;;;;;5110979;28;20477;-72
2022/10/10 12:06:32;;;;;;;5.68;1.98;;;27.30;77.30;;;;;;5111120;28;20470;-72
2022/10/10 12:09:27;;;;;;;3.95;1.70;;;26.50;76.00;;;;;;5110066;28;20392;-72
2022/10/10 12:11:56;;;;;;;4.68;1.60;;;25.70;80.20;;;;;;5110531;28;20384;-72
2022/10/10 12:14:25;;;;;;;5.90;1.98;;;26.30;80.30;;;;;;5110199;28;20380;-71
2022/10/10 12:16:51;;;;;;;2.45;1.70;;;25.70;78.50;;;;;;5110499;28;20373;-71
2022/10/10 12:19:19;;;;;;;5.10;1.90;;;25.00;82.60;;;;;;5110317;28;20433;-72
2022/10/10 12:21:59;;;;;;;3.47;1.95;;;25.00;88.10;;;;;;5108864;28;20400;-73
2022/10/10 12:25:02;;;;;;;5.33;2.20;;;24.60;85.60;;;;;;5091811;28;20407;-73
2022/10/10 12:27:45;;;;;;;3.63;1.98;;;24.60;88.60;;;;;;5108445;28;20384;-73
2022/10/10 12:30:15;;;;;;;3.77;1.90;;;24.40;87.20;;;;;;5110342;28;20365;-72
2022/10/10 12:32:44;;;;;;;3.95;2.10;;;23.60;90.00;;;;;;5109874;28;20392;-72
2022/10/10 12:35:57;;;;;;;7.13;2.40;;;23.50;91.00;;;;;;5110107;28;20763;-72
2022/10/10 12:38:46;;;;;;;3.50;1.90;;;23.60;88.40;;;;;;5090737;28;20475;-73
2022/10/10 12:42:23;;;;;;;4.40;2.20;;;23.50;90.20;;;;;;5110504;28;20834;-77
2022/10/10 12:44:51;;;;;;;5.00;2.70;;;23.70;89.80;;;;;;5047491;28;20484;-74
2022/10/10 12:47:17;;;;;;;4.13;1.98;;;23.60;90.60;;;;;;5050255;28;20385;-74
2022/10/10 12:50:01;;;;;;;4.50;2.00;;;23.80;91.40;;;;;;5084690;28;20738;-73
2022/10/10 12:52:26;;;;;;;8.23;2.35;;;23.80;87.60;;;;;;5114226;28;20411;-73
2022/10/10 12:55:00;;;;;;;5.50;2.28;;;24.00;83.80;;;;;;5113884;28;20439;-74
2022/10/10 12:57:31;;;;;;;4.28;2.38;;;24.10;83.70;;;;;;5114204;28;20376;-73
2022/10/10 13:00:03;;;;;;;6.13;2.40;;;24.20;83.90;;;;;;5114102;28;20781;-74
2022/10/10 13:02:28;;;;;;;7.05;2.13;;;24.10;85.60;;;;;;5113792;28;20388;-73
2022/10/10 13:04:58;;;;;;;9.00;2.50;;;24.10;82.60;;;;;;5111439;28;20403;-73
2022/10/10 13:07:24;;;;;;;5.63;2.15;;;24.30;81.90;;;;;;5106965;28;20487;-73
2022/10/10 13:09:53;;;;;;;9.03;2.60;;;24.40;80.40;;;;;;5103955;28;20408;-74